createdAt,value
2023-05-09T00:01:30.157Z,47.48
2023-05-09T00:04:01.192Z,47.48
2023-05-09T00:06:31.909Z,46.60
2023-05-09T00:09:02.057Z,46.60
2023-05-09T00:11:32.803Z,45.19
2023-05-09T00:14:03.199Z,45.19
2023-05-09T00:16:33.679Z,45.60
2023-05-09T00:19:04.445Z,47.12
2023-05-09T00:21:35.023Z,45.43
2023-05-09T00:24:05.868Z,44.46
2023-05-09T00:26:36.098Z,44.33
2023-05-09T00:29:06.499Z,44.33
2023-05-09T00:31:36.965Z,45.35
2023-05-09T00:34:07.365Z,45.35
2023-05-09T00:36:37.735Z,44.35
2023-05-09T00:39:08.072Z,44.84
2023-05-09T00:41:38.519Z,45.06
2023-05-09T00:44:08.847Z,45.26
2023-05-09T00:46:40.321Z,45.26
2023-05-09T00:49:10.719Z,46.10
2023-05-09T00:51:41.733Z,45.16
2023-05-09T00:54:12.088Z,45.21
2023-05-09T00:56:42.460Z,44.38
2023-05-09T00:59:12.902Z,45.64
2023-05-09T01:01:43.156Z,46.74
2023-05-09T01:04:15.286Z,44.48
2023-05-09T01:07:01.125Z,44.45
2023-05-09T01:09:59.480Z,43.71
2023-05-09T01:12:49.477Z,45.28
2023-05-09T01:15:31.691Z,46.14
2023-05-09T01:18:15.005Z,47.68
2023-05-09T01:20:48.236Z,46.02
2023-05-09T01:23:37.022Z,46.50
2023-05-09T01:26:27.065Z,45.91
2023-05-09T01:29:29.231Z,45.99
2023-05-09T01:32:01.935Z,47.48
2023-05-09T01:34:34.117Z,47.48
2023-05-09T01:37:07.198Z,44.54
2023-05-09T01:39:41.142Z,45.39
2023-05-09T01:42:13.279Z,46.08
2023-05-09T01:45:04.329Z,46.15
2023-05-09T01:47:35.998Z,45.06
2023-05-09T01:50:08.892Z,46.70
2023-05-09T01:52:42.353Z,45.11
2023-05-09T01:55:13.888Z,45.94
2023-05-09T01:57:45.923Z,45.91
2023-05-09T02:00:17.136Z,45.91
2023-05-09T02:02:48.991Z,44.85
2023-05-09T02:05:20.924Z,46.70
2023-05-09T02:07:51.831Z,46.70
2023-05-09T02:10:22.872Z,45.67
2023-05-09T02:12:54.668Z,47.87
2023-05-09T02:15:26.588Z,47.87
2023-05-09T02:17:56.957Z,45.75
2023-05-09T02:20:27.304Z,46.34
2023-05-09T02:22:57.701Z,45.82
2023-05-09T02:25:28.147Z,45.82
2023-05-09T02:27:59.891Z,47.24
2023-05-09T02:30:33.045Z,45.16
2023-05-09T02:33:06.362Z,45.02
2023-05-09T02:35:41.218Z,46.08
2023-05-09T02:38:13.238Z,44.98
2023-05-09T02:40:44.193Z,44.98
2023-05-09T02:43:15.811Z,46.42
2023-05-09T02:45:46.147Z,46.69
2023-05-09T02:48:16.486Z,46.69
2023-05-09T02:50:47.250Z,45.21
2023-05-09T02:53:17.536Z,45.13
2023-05-09T02:55:47.902Z,46.95
2023-05-09T02:58:18.328Z,48.73
2023-05-09T03:00:48.644Z,45.19
2023-05-09T03:03:20.648Z,44.45
2023-05-09T03:05:53.434Z,46.27
2023-05-09T03:08:23.969Z,45.18
2023-05-09T03:10:54.312Z,46.86
2023-05-09T03:13:24.669Z,46.17
2023-05-09T03:15:55.133Z,45.52
2023-05-09T03:18:25.869Z,46.60
2023-05-09T03:20:56.148Z,46.05
2023-05-09T03:23:26.467Z,46.43
2023-05-09T03:25:56.730Z,46.43
2023-05-09T03:28:28.443Z,45.46
2023-05-09T03:30:58.820Z,44.90
2023-05-09T03:33:29.115Z,44.90
2023-05-09T03:35:59.509Z,44.88
2023-05-09T03:38:29.930Z,44.59
2023-05-09T03:41:00.229Z,44.69
2023-05-09T03:43:30.568Z,44.69
2023-05-09T03:46:01.079Z,45.61
2023-05-09T03:48:31.545Z,45.39
2023-05-09T03:51:02.118Z,45.68
2023-05-09T03:53:32.544Z,43.74
2023-05-09T03:56:08.864Z,45.17
2023-05-09T03:58:42.526Z,45.36
2023-05-09T04:01:12.956Z,44.73
2023-05-09T04:03:43.486Z,44.73
2023-05-09T04:06:14.064Z,44.91
2023-05-09T04:08:44.799Z,46.37
2023-05-09T04:11:15.176Z,43.62
2023-05-09T04:13:45.468Z,44.67
2023-05-09T04:16:15.744Z,43.80
2023-05-09T04:18:46.151Z,45.87
2023-05-09T04:21:16.379Z,45.14
2023-05-09T04:23:46.865Z,45.14
2023-05-09T04:26:17.181Z,46.36
2023-05-09T04:28:47.602Z,45.62
2023-05-09T04:31:17.994Z,45.71
2023-05-09T04:33:48.214Z,45.71
2023-05-09T04:36:18.378Z,45.51
2023-05-09T04:38:48.728Z,45.51
2023-05-09T04:41:19.434Z,43.75
2023-05-09T04:43:49.807Z,43.48
2023-05-09T04:46:20.103Z,43.11
2023-05-09T04:48:50.401Z,42.52
2023-05-09T04:51:20.609Z,42.95
2023-05-09T04:53:50.858Z,42.95
2023-05-09T04:56:21.135Z,44.40
2023-05-09T04:58:51.448Z,44.90
2023-05-09T05:01:21.754Z,43.34
2023-05-09T05:03:52.016Z,42.63
2023-05-09T05:06:22.265Z,42.85
2023-05-09T05:08:52.560Z,43.63
2023-05-09T05:11:22.992Z,42.77
2023-05-09T05:13:53.330Z,42.77
2023-05-09T05:16:23.752Z,41.37
2023-05-09T05:18:53.915Z,41.10
2023-05-09T05:21:24.454Z,43.75
2023-05-09T05:23:54.781Z,42.24
2023-05-09T05:26:25.163Z,43.39
2023-05-09T05:28:55.375Z,46.29
2023-05-09T05:31:25.883Z,43.69
2023-05-09T05:33:57.448Z,42.49
2023-05-09T05:36:27.810Z,44.35
2023-05-09T05:38:59.606Z,44.35
2023-05-09T05:41:30.092Z,41.86
2023-05-09T05:44:00.509Z,43.48
2023-05-09T05:46:30.998Z,44.26
2023-05-09T05:49:01.451Z,44.26
2023-05-09T05:51:32.205Z,43.17
2023-05-09T05:54:02.786Z,43.06
2023-05-09T05:56:33.354Z,43.06
2023-05-09T05:59:03.827Z,43.28
2023-05-09T06:01:34.141Z,40.90
2023-05-09T06:04:04.701Z,41.88
2023-05-09T06:06:35.106Z,40.58
2023-05-09T06:09:05.543Z,40.55
2023-05-09T06:11:36.200Z,41.86
2023-05-09T06:14:06.648Z,42.43
2023-05-09T06:16:37.214Z,41.00
2023-05-09T06:19:08.051Z,40.55
2023-05-09T06:21:38.566Z,40.55
2023-05-09T06:24:14.404Z,40.78
2023-05-09T06:26:41.274Z,38.56
2023-05-09T06:29:11.681Z,37.97
2023-05-09T06:31:42.160Z,38.25
2023-05-09T06:34:12.435Z,38.25
2023-05-09T06:36:42.791Z,38.05
2023-05-09T06:39:13.240Z,38.09
2023-05-09T06:41:43.562Z,36.80
2023-05-09T06:44:15.362Z,36.80
2023-05-09T06:46:45.787Z,38.63
2023-05-09T06:49:19.193Z,38.63
2023-05-09T06:51:49.637Z,37.65
2023-05-09T06:54:20.023Z,36.75
2023-05-09T06:56:53.533Z,37.66
2023-05-09T06:59:26.352Z,37.66
2023-05-09T07:02:01.162Z,36.50
2023-05-09T07:04:35.091Z,36.33
2023-05-09T07:07:05.921Z,35.77
2023-05-09T07:10:39.238Z,35.77
2023-05-09T07:12:30.988Z,38.26
2023-05-09T07:15:03.399Z,38.95
2023-05-09T07:17:38.397Z,37.12
2023-05-09T07:20:10.623Z,38.18
2023-05-09T07:22:41.243Z,38.18
2023-05-09T07:25:11.717Z,36.34
2023-05-09T07:27:42.794Z,38.11
2023-05-09T07:30:13.887Z,38.11
2023-05-09T07:32:44.685Z,38.40
2023-05-09T07:35:15.422Z,39.71
2023-05-09T07:37:46.094Z,37.81
2023-05-09T07:40:22.625Z,37.28
2023-05-09T07:42:52.940Z,38.39
2023-05-09T07:45:24.011Z,38.39
2023-05-09T07:47:56.550Z,37.17
2023-05-09T07:50:26.606Z,36.74
2023-05-09T07:52:56.952Z,36.74
2023-05-09T07:55:27.350Z,37.62
2023-05-09T07:57:57.832Z,37.62
2023-05-09T08:00:28.185Z,36.57
2023-05-09T08:02:58.541Z,36.57
2023-05-09T08:05:34.788Z,35.57
2023-05-09T08:08:05.359Z,35.13
2023-05-09T08:10:36.881Z,35.13
2023-05-09T08:13:10.768Z,33.33
2023-05-09T08:15:42.406Z,33.31
2023-05-09T08:18:31.907Z,33.95
2023-05-09T08:21:04.006Z,35.29
2023-05-09T08:23:34.565Z,34.89
2023-05-09T08:26:07.167Z,34.89
2023-05-09T08:28:42.451Z,33.59
2023-05-09T08:31:18.800Z,33.02
2023-05-09T08:33:52.915Z,33.02
2023-05-09T08:36:24.663Z,32.04
2023-05-09T08:38:56.571Z,28.85
2023-05-09T08:41:28.667Z,30.82
2023-05-09T08:44:01.373Z,29.65
2023-05-09T08:46:40.657Z,29.66
2023-05-09T08:49:15.353Z,29.65
2023-05-09T08:51:54.169Z,28.73
2023-05-09T08:54:27.737Z,28.63
2023-05-09T08:57:48.680Z,28.98
2023-05-09T08:59:38.672Z,26.86
2023-05-09T09:02:16.099Z,28.21
2023-05-09T09:04:47.968Z,29.38
2023-05-09T09:07:22.231Z,29.55
2023-05-09T09:09:54.925Z,29.55
2023-05-09T09:12:28.203Z,28.01
2023-05-09T09:15:02.406Z,30.72
2023-05-09T09:17:56.756Z,31.97
2023-05-09T09:20:32.828Z,30.40
2023-05-09T09:23:04.788Z,30.40
2023-05-09T09:25:35.038Z,31.98
2023-05-09T09:28:10.996Z,34.27
2023-05-09T09:30:56.521Z,34.32
2023-05-09T09:33:29.100Z,34.27
2023-05-09T09:35:59.695Z,34.27
2023-05-09T09:38:31.585Z,34.35
2023-05-09T09:41:02.121Z,34.84
2023-05-09T09:43:33.750Z,34.95
2023-05-09T09:46:05.423Z,34.95
2023-05-09T09:48:36.451Z,34.94
2023-05-09T09:51:11.015Z,34.94
2023-05-09T09:53:48.136Z,33.34
2023-05-09T09:56:18.785Z,33.34
2023-05-09T09:58:49.306Z,32.03
2023-05-09T10:01:19.732Z,32.03
2023-05-09T10:03:51.401Z,30.36
2023-05-09T10:06:21.755Z,28.98
2023-05-09T10:08:52.183Z,29.59
2023-05-09T10:11:23.400Z,30.54
2023-05-09T10:13:55.704Z,30.54
2023-05-09T10:16:40.168Z,31.09
2023-05-09T10:18:58.897Z,34.04
2023-05-09T10:21:30.155Z,34.04
2023-05-09T10:24:03.403Z,33.65
2023-05-09T10:26:36.786Z,33.54
2023-05-09T10:29:10.058Z,33.54
2023-05-09T10:31:48.324Z,34.95
2023-05-09T10:34:20.176Z,33.84
2023-05-09T10:36:50.621Z,33.72
2023-05-09T10:39:24.739Z,34.29
2023-05-09T10:41:56.013Z,35.49
2023-05-09T10:44:28.053Z,35.06
2023-05-09T10:47:10.305Z,35.72
2023-05-09T10:49:43.314Z,35.72
2023-05-09T10:52:20.355Z,34.00
2023-05-09T10:55:08.321Z,34.81
2023-05-09T10:57:40.268Z,33.65
2023-05-09T11:00:14.059Z,33.65
2023-05-09T11:02:49.294Z,33.91
2023-05-09T11:05:20.823Z,34.58
2023-05-09T11:07:54.242Z,34.58
2023-05-09T11:10:24.545Z,34.43
2023-05-09T11:12:58.570Z,33.23
2023-05-09T11:15:30.145Z,34.54
2023-05-09T11:18:16.201Z,34.40
2023-05-09T11:20:49.546Z,34.61
2023-05-09T11:23:29.991Z,34.61
2023-05-09T11:26:13.622Z,33.65
2023-05-09T11:28:46.870Z,33.77
2023-05-09T11:31:19.343Z,32.49
2023-05-09T11:33:51.414Z,32.49
2023-05-09T11:36:30.453Z,32.80
2023-05-09T11:39:21.513Z,33.84
2023-05-09T11:41:48.173Z,34.31
2023-05-09T11:44:23.460Z,36.12
2023-05-09T11:46:54.199Z,34.00
2023-05-09T11:49:28.355Z,33.89
2023-05-09T11:52:02.912Z,34.26
2023-05-09T11:54:35.584Z,33.44
2023-05-09T11:57:08.577Z,33.82
2023-05-09T11:59:39.412Z,33.82
2023-05-09T12:02:12.628Z,32.26
2023-05-09T12:04:46.217Z,33.14
2023-05-09T12:07:20.782Z,32.42
2023-05-09T12:09:56.055Z,32.42
2023-05-09T12:12:29.214Z,31.91
2023-05-09T12:15:10.813Z,31.87
2023-05-09T12:17:46.764Z,32.47
2023-05-09T12:20:23.617Z,32.47
2023-05-09T12:22:56.063Z,34.23
2023-05-09T12:25:26.510Z,34.23
2023-05-09T12:28:00.375Z,33.90
2023-05-09T12:30:31.632Z,33.05
2023-05-09T12:33:03.144Z,33.05
2023-05-09T12:35:39.895Z,33.19
2023-05-09T12:38:13.841Z,32.68
2023-05-09T12:40:53.190Z,33.49
2023-05-09T12:43:23.430Z,33.23
2023-05-09T12:45:54.185Z,33.23
2023-05-09T12:48:25.841Z,32.90
2023-05-09T12:50:56.256Z,32.90
2023-05-09T12:53:29.740Z,32.44
2023-05-09T12:56:04.897Z,32.44
2023-05-09T12:58:35.643Z,31.56
2023-05-09T13:01:06.109Z,29.82
2023-05-09T13:03:41.177Z,29.79
2023-05-09T13:06:14.074Z,29.79
2023-05-09T13:08:44.597Z,30.14
2023-05-09T13:11:16.564Z,31.57
2023-05-09T13:13:47.237Z,31.82
2023-05-09T13:16:18.142Z,31.82
2023-05-09T13:18:48.686Z,32.41
2023-05-09T13:21:20.245Z,33.56
2023-05-09T13:23:52.626Z,33.56
2023-05-09T13:26:23.125Z,35.34
2023-05-09T13:28:53.751Z,35.24
2023-05-09T13:31:25.714Z,35.24
2023-05-09T13:33:56.310Z,34.72
2023-05-09T13:36:26.766Z,32.49
2023-05-09T13:38:59.503Z,32.49
2023-05-09T13:41:29.766Z,33.46
2023-05-09T13:44:06.498Z,31.22
2023-05-09T13:46:37.333Z,31.22
2023-05-09T13:49:07.855Z,31.70
2023-05-09T13:51:42.254Z,30.67
2023-05-09T13:54:21.076Z,30.67
2023-05-09T13:56:54.534Z,30.23
2023-05-09T13:59:28.252Z,32.91
2023-05-09T14:01:59.864Z,32.91
2023-05-09T14:04:31.645Z,32.27
2023-05-09T14:07:02.421Z,30.88
2023-05-09T14:09:36.657Z,31.23
2023-05-09T14:12:11.691Z,30.87
2023-05-09T14:14:42.871Z,30.87
2023-05-09T14:17:17.046Z,34.10
2023-05-09T14:19:50.515Z,32.82
2023-05-09T14:22:27.306Z,32.82
2023-05-09T14:24:59.957Z,31.95
2023-05-09T14:27:30.341Z,31.95
2023-05-09T14:30:02.241Z,32.99
2023-05-09T14:32:40.141Z,32.43
2023-05-09T14:35:11.265Z,33.08
2023-05-09T14:37:41.877Z,33.08
2023-05-09T14:40:30.485Z,32.09
2023-05-09T14:43:07.959Z,33.49
2023-05-09T14:45:39.091Z,33.44
2023-05-09T14:48:09.679Z,32.37
2023-05-09T14:50:40.310Z,32.96
2023-05-09T14:53:11.364Z,32.96
2023-05-09T14:55:41.903Z,34.14
2023-05-09T14:58:12.573Z,33.51
2023-05-09T15:00:42.883Z,35.46
2023-05-09T15:03:13.828Z,35.46
2023-05-09T15:05:44.579Z,35.54
2023-05-09T15:08:15.191Z,33.21
2023-05-09T15:10:47.049Z,33.21
2023-05-09T15:13:20.193Z,33.50
2023-05-09T15:15:53.151Z,33.38
2023-05-09T15:18:23.440Z,33.92
2023-05-09T15:20:56.635Z,33.00
2023-05-09T15:23:29.065Z,34.94
2023-05-09T15:25:59.440Z,35.43
2023-05-09T15:28:29.790Z,35.43
2023-05-09T15:31:00.184Z,35.10
2023-05-09T15:33:30.693Z,33.25
2023-05-09T15:36:01.047Z,34.14
2023-05-09T15:38:31.820Z,34.21
2023-05-09T15:41:02.272Z,34.21
2023-05-09T15:43:33.091Z,33.77
2023-05-09T15:46:05.534Z,33.77
2023-05-09T15:48:35.508Z,34.12
2023-05-09T15:51:07.316Z,34.74
2023-05-09T15:53:37.557Z,34.74
2023-05-09T15:56:08.956Z,34.98
2023-05-09T15:58:43.009Z,35.12
2023-05-09T16:01:35.563Z,35.48
2023-05-09T16:04:05.811Z,36.30
2023-05-09T16:06:38.284Z,35.65
2023-05-09T16:09:08.537Z,37.91
2023-05-09T16:11:49.901Z,36.82
2023-05-09T16:14:20.444Z,36.82
2023-05-09T16:16:51.262Z,38.11
2023-05-09T16:19:24.003Z,37.86
2023-05-09T16:21:54.367Z,37.86
2023-05-09T16:24:24.653Z,37.22
2023-05-09T16:26:54.940Z,38.11
2023-05-09T16:29:25.473Z,39.97
2023-05-09T16:31:55.948Z,38.79
2023-05-09T16:34:28.055Z,42.72
2023-05-09T16:36:58.554Z,43.19
2023-05-09T16:39:29.501Z,42.88
2023-05-09T16:42:00.141Z,45.17
2023-05-09T16:44:31.074Z,46.08
2023-05-09T16:47:01.484Z,46.42
2023-05-09T16:49:33.850Z,47.03
2023-05-09T16:52:04.182Z,45.75
2023-05-09T16:54:34.562Z,45.20
2023-05-09T16:57:04.867Z,47.68
2023-05-09T16:59:35.480Z,47.76
2023-05-09T17:02:05.740Z,47.75
2023-05-09T17:04:37.693Z,47.19
2023-05-09T17:07:08.906Z,44.88
2023-05-09T17:09:39.360Z,47.62
2023-05-09T17:12:09.826Z,47.62
2023-05-09T17:14:40.623Z,49.45
2023-05-09T17:17:11.078Z,49.41
2023-05-09T17:19:41.741Z,47.13
2023-05-09T17:22:12.216Z,49.74
2023-05-09T17:24:42.643Z,50.60
2023-05-09T17:27:13.185Z,50.01
2023-05-09T17:29:43.707Z,49.26
2023-05-09T17:32:14.155Z,51.34
2023-05-09T17:34:44.561Z,50.87
2023-05-09T17:37:14.986Z,50.05
2023-05-09T17:39:45.166Z,51.13
2023-05-09T17:42:15.547Z,49.24
2023-05-09T17:44:50.513Z,50.71
2023-05-09T17:47:20.978Z,50.71
2023-05-09T17:49:51.411Z,53.45
2023-05-09T17:52:21.888Z,54.57
2023-05-09T17:54:53.352Z,54.57
2023-05-09T17:57:23.586Z,56.29
2023-05-09T17:59:53.793Z,54.44
2023-05-09T18:02:24.459Z,54.33
2023-05-09T18:04:56.362Z,56.94
2023-05-09T18:07:29.111Z,58.08
2023-05-09T18:10:00.954Z,58.66
2023-05-09T18:12:34.987Z,57.96
2023-05-09T18:17:46.903Z,56.71
2023-05-09T18:20:19.485Z,56.39
2023-05-09T18:22:55.633Z,57.32
2023-05-09T18:25:26.746Z,57.32
2023-05-09T18:28:02.892Z,57.86
2023-05-09T18:30:34.190Z,56.76
2023-05-09T18:33:04.875Z,58.08
2023-05-09T18:35:35.684Z,56.10
2023-05-09T18:38:07.858Z,56.51
2023-05-09T18:40:38.529Z,56.51
2023-05-09T18:43:11.670Z,58.42
2023-05-09T18:45:42.816Z,56.03
2023-05-09T18:48:13.642Z,56.03
2023-05-09T18:50:44.220Z,56.32
2023-05-09T18:53:28.736Z,55.98
2023-05-09T18:55:49.904Z,56.76
2023-05-09T18:58:22.460Z,57.23
2023-05-09T19:00:55.780Z,50.86
2023-05-09T19:03:26.403Z,51.89
2023-05-09T19:05:58.764Z,52.52
2023-05-09T19:08:29.442Z,58.06
2023-05-09T19:11:00.548Z,55.85
2023-05-09T19:13:31.428Z,56.27
2023-05-09T19:16:01.732Z,58.61
2023-05-09T19:18:34.327Z,56.83
2023-05-09T19:21:05.022Z,58.65
2023-05-09T19:23:37.290Z,56.93
2023-05-09T19:26:10.677Z,59.30
2023-05-09T19:28:42.695Z,61.85
2023-05-09T19:31:17.881Z,60.57
2023-05-09T19:33:48.282Z,62.45
2023-05-09T19:36:20.064Z,61.50
2023-05-09T19:38:52.087Z,62.34
2023-05-09T19:41:28.207Z,63.79
2023-05-09T19:43:59.118Z,63.79
2023-05-09T19:46:30.330Z,63.23
2023-05-09T19:49:02.306Z,63.29
2023-05-09T19:51:33.553Z,62.61
2023-05-09T19:54:04.425Z,61.26
2023-05-09T19:56:37.060Z,60.83
2023-05-09T19:59:08.920Z,60.83
2023-05-09T20:01:39.555Z,57.77
2023-05-09T20:04:10.334Z,62.23
2023-05-09T20:06:42.383Z,63.31
2023-05-09T20:09:15.675Z,66.59
2023-05-09T20:11:46.255Z,66.59
2023-05-09T20:14:17.456Z,67.25
2023-05-09T20:16:48.053Z,65.17
2023-05-09T20:19:19.957Z,63.70
2023-05-09T20:21:50.753Z,63.92
2023-05-09T20:24:21.383Z,65.38
2023-05-09T20:26:53.537Z,65.38
2023-05-09T20:29:25.828Z,61.00
2023-05-09T20:31:59.397Z,56.39
2023-05-09T20:34:29.714Z,56.39
2023-05-09T20:37:07.653Z,63.93
2023-05-09T20:39:38.083Z,63.61
2023-05-09T20:42:09.014Z,63.31
2023-05-09T20:44:39.383Z,64.10
2023-05-09T20:47:10.469Z,66.12
2023-05-09T20:49:41.013Z,59.53
2023-05-09T20:52:11.419Z,52.55
2023-05-09T20:54:44.063Z,52.55
2023-05-09T20:57:14.377Z,52.81
2023-05-09T20:59:46.761Z,49.60
2023-05-09T21:02:18.438Z,61.78
2023-05-09T21:04:48.775Z,52.56
2023-05-09T21:07:19.451Z,52.98
2023-05-09T21:09:49.921Z,53.97
2023-05-09T21:15:19.883Z,49.51
2023-05-09T21:17:50.299Z,51.97
2023-05-09T21:20:22.146Z,51.44
2023-05-09T21:22:52.453Z,49.32
2023-05-09T21:25:26.040Z,47.81
2023-05-09T21:27:56.766Z,54.36
2023-05-09T21:30:27.109Z,59.52
2023-05-09T21:32:57.610Z,53.86
2023-05-09T21:35:27.969Z,51.71
2023-05-09T21:37:58.473Z,51.71
2023-05-09T21:40:28.758Z,49.61
2023-05-09T21:42:59.107Z,49.77
2023-05-09T21:45:29.674Z,49.11
2023-05-09T21:48:00.328Z,49.13
2023-05-09T21:50:31.305Z,49.13
2023-05-09T21:53:01.528Z,55.01
2023-05-09T21:55:32.339Z,57.55
2023-05-09T21:58:02.725Z,59.50
2023-05-09T22:00:32.996Z,59.30
2023-05-09T22:03:03.516Z,59.30
2023-05-09T22:05:34.177Z,61.04
2023-05-09T22:08:04.713Z,61.24
2023-05-09T22:10:37.419Z,59.20
2023-05-09T22:13:07.853Z,58.56
2023-05-09T22:15:38.207Z,59.49
2023-05-09T22:18:10.059Z,61.24
2023-05-09T22:20:40.631Z,62.35
2023-05-09T22:23:10.985Z,63.91
2023-05-09T22:25:41.390Z,63.07
2023-05-09T22:28:11.758Z,65.00
2023-05-09T22:30:45.254Z,61.24
2023-05-09T22:33:20.091Z,57.24
2023-05-09T22:35:56.313Z,57.13
2023-05-09T22:38:26.760Z,58.07
2023-05-09T22:40:57.356Z,57.48
2023-05-09T22:43:38.749Z,58.98
2023-05-09T22:46:09.797Z,59.21
2023-05-09T22:48:39.089Z,59.83
2023-05-09T22:51:09.615Z,59.73
2023-05-09T22:53:40.080Z,60.07
2023-05-09T22:56:15.053Z,60.23
2023-05-09T22:58:45.477Z,59.74
2023-05-09T23:01:16.097Z,59.74
2023-05-09T23:03:48.025Z,62.28
2023-05-09T23:06:18.859Z,62.28
2023-05-09T23:08:49.247Z,64.01
2023-05-09T23:11:19.530Z,64.68
2023-05-09T23:13:52.478Z,65.75
2023-05-09T23:16:23.365Z,67.17
2023-05-09T23:18:53.998Z,67.17
2023-05-09T23:21:24.360Z,66.83
2023-05-09T23:24:03.524Z,66.94
2023-05-09T23:26:45.694Z,66.80
2023-05-09T23:29:16.057Z,66.51
2023-05-09T23:31:46.579Z,64.85
2023-05-09T23:34:16.900Z,67.79
2023-05-09T23:36:47.207Z,65.51
2023-05-09T23:39:17.451Z,65.19
2023-05-09T23:41:47.775Z,65.19
2023-05-09T23:44:18.103Z,64.35
2023-05-09T23:46:48.497Z,63.62
2023-05-09T23:49:19.325Z,64.59
2023-05-09T23:51:49.696Z,65.69
2023-05-09T23:54:20.135Z,66.72
2023-05-09T23:56:50.346Z,66.98
2023-05-09T23:59:20.628Z,67.15
